Time;durP1;ratioP1;P1;durP2;ratioP2;P2;SDS_P1;SDS_P2;PMS_P1;PMS_P2;Temp;Humidity;BMP_temperature;BMP_pressure;BME280_temperature;BME280_humidity;BME280_pressure;Samples;Min_cycle;Max_cycle;Signal;HPM_P1;HPM_P2
2022/08/18 19:40:42;;;;;;;3.97;2.78;;;20.10;99.90;;;;;;5128844;27;20398;-66
2022/08/18 19:43:28;;;;;;;2.63;2.42;;;19.70;99.90;;;;;;5142621;27;20052;-69
2022/08/18 19:46:21;;;;;;;5.07;2.65;;;19.70;99.90;;;;;;5129128;27;20484;-66
2022/08/18 19:48:51;;;;;;;3.65;2.90;;;19.60;99.90;;;;;;5121676;27;20069;-67
2022/08/18 19:51:27;;;;;;;3.05;2.40;;;19.60;99.90;;;;;;5124596;27;20074;-66
2022/08/18 19:54:16;;;;;;;4.15;2.70;;;19.50;99.90;;;;;;5127334;27;20031;-65
2022/08/18 19:56:51;;;;;;;4.13;2.58;;;19.40;99.90;;;;;;5147889;27;20038;-67
2022/08/18 19:59:41;;;;;;;2.85;2.63;;;19.40;99.90;;;;;;5147833;27;20485;-66
2022/08/18 20:02:14;;;;;;;2.65;2.45;;;19.30;99.90;;;;;;5148319;27;20507;-67
2022/08/18 20:05:07;;;;;;;4.95;2.83;;;19.20;99.90;;;;;;5147919;27;20035;-66
2022/08/18 20:07:57;;;;;;;5.18;2.72;;;19.20;99.90;;;;;;5130598;27;20039;-66
2022/08/18 20:10:23;;;;;;;2.72;2.53;;;19.20;99.90;;;;;;5147585;27;20067;-66
2022/08/18 20:12:51;;;;;;;3.28;2.75;;;19.10;99.90;;;;;;5148273;27;20039;-67
2022/08/18 20:15:21;;;;;;;5.45;3.03;;;19.00;99.90;;;;;;5147284;27;20031;-66
2022/08/18 20:17:56;;;;;;;3.45;2.72;;;19.00;99.90;;;;;;5147707;27;20117;-65
2022/08/18 20:20:24;;;;;;;4.68;2.65;;;18.90;99.90;;;;;;5147454;27;20035;-66
2022/08/18 20:22:52;;;;;;;5.25;3.15;;;18.90;99.90;;;;;;5147671;27;20042;-68
2022/08/18 20:25:32;;;;;;;3.13;2.83;;;18.80;99.90;;;;;;5133298;27;20079;-66
2022/08/18 20:27:57;;;;;;;5.53;2.88;;;18.70;99.90;;;;;;5123433;27;20043;-68
2022/08/18 20:30:51;;;;;;;5.20;3.10;;;18.70;99.90;;;;;;5126373;27;20088;-67
2022/08/18 20:33:24;;;;;;;4.03;3.17;;;18.60;99.90;;;;;;5140868;27;20046;-65
2022/08/18 20:36:08;;;;;;;3.38;2.70;;;18.60;99.90;;;;;;5141771;27;20035;-67
2022/08/18 20:38:39;;;;;;;4.47;3.28;;;18.50;99.90;;;;;;5146755;27;20103;-67
2022/08/18 20:41:25;;;;;;;4.22;3.10;;;18.50;99.90;;;;;;5109810;27;20466;-65
2022/08/18 20:44:35;;;;;;;4.57;3.05;;;18.40;99.90;;;;;;5126433;27;20039;-66
2022/08/18 20:47:10;;;;;;;3.30;3.00;;;18.40;99.90;;;;;;5124138;27;20075;-67
2022/08/18 20:50:13;;;;;;;4.10;3.03;;;18.30;99.90;;;;;;5106639;27;20082;-67
2022/08/18 20:52:49;;;;;;;4.22;3.10;;;18.30;99.90;;;;;;5098120;28;20501;-64
2022/08/18 20:55:21;;;;;;;6.10;3.33;;;18.20;99.90;;;;;;5130470;27;20118;-65
2022/08/18 20:57:50;;;;;;;4.68;3.35;;;18.20;99.90;;;;;;5128684;27;20043;-68
2022/08/18 21:00:20;;;;;;;4.60;3.42;;;18.20;99.90;;;;;;5130127;27;20054;-66
2022/08/18 21:02:53;;;;;;;3.60;3.30;;;18.10;99.90;;;;;;5132518;27;20058;-65
2022/08/18 21:05:24;;;;;;;4.25;3.30;;;18.10;99.90;;;;;;5112507;27;20509;-66
2022/08/18 21:08:02;;;;;;;4.27;3.20;;;18.00;99.90;;;;;;5109160;27;20047;-65
2022/08/18 21:10:29;;;;;;;4.53;3.63;;;18.00;99.90;;;;;;5102760;28;20043;-68
2022/08/18 21:13:04;;;;;;;4.55;3.25;;;18.00;99.90;;;;;;5103057;28;20043;-69
2022/08/18 21:15:35;;;;;;;3.75;3.42;;;17.90;99.90;;;;;;5100566;28;20474;-67
2022/08/18 21:18:16;;;;;;;3.30;3.00;;;17.90;99.90;;;;;;5100785;28;20625;-67
2022/08/18 21:20:42;;;;;;;4.22;3.17;;;17.90;99.90;;;;;;5099305;28;20071;-67
2022/08/18 21:23:11;;;;;;;3.40;3.10;;;17.80;99.90;;;;;;5091722;28;20531;-65
2022/08/18 21:25:49;;;;;;;4.20;3.15;;;17.80;99.90;;;;;;5107417;28;20103;-66
2022/08/18 21:28:16;;;;;;;4.18;3.10;;;17.70;99.90;;;;;;5112074;27;20080;-65
2022/08/18 21:30:58;;;;;;;5.28;3.10;;;17.70;99.90;;;;;;5113467;27;20414;-64
2022/08/18 21:33:24;;;;;;;5.90;2.95;;;17.70;99.90;;;;;;5106413;28;20390;-67
2022/08/18 21:35:49;;;;;;;6.07;3.67;;;17.70;99.90;;;;;;5103225;27;20047;-64
2022/08/18 21:38:25;;;;;;;4.32;3.33;;;17.60;99.90;;;;;;5114831;27;20031;-65
2022/08/18 21:40:58;;;;;;;3.97;3.35;;;17.60;99.90;;;;;;5105213;28;20047;-65
2022/08/18 21:43:41;;;;;;;4.68;3.22;;;17.60;99.90;;;;;;5109299;27;20513;-68
2022/08/18 21:46:09;;;;;;;4.45;3.50;;;17.50;99.90;;;;;;5083448;28;20051;-66
2022/08/18 21:48:39;;;;;;;6.72;3.28;;;17.50;99.90;;;;;;5110681;28;20168;-68
2022/08/18 21:51:07;;;;;;;6.47;3.13;;;17.40;99.90;;;;;;5113292;27;20040;-64
2022/08/18 21:53:37;;;;;;;3.85;3.40;;;17.40;99.90;;;;;;5105569;28;20054;-67
2022/08/18 21:56:03;;;;;;;3.40;3.10;;;17.30;99.90;;;;;;5109852;27;20052;-66
2022/08/18 21:58:40;;;;;;;4.20;3.30;;;17.30;99.90;;;;;;5096206;28;20059;-67
2022/08/18 22:01:09;;;;;;;4.85;3.28;;;17.30;99.90;;;;;;5112775;27;20116;-66
2022/08/18 22:03:47;;;;;;;5.65;3.47;;;17.30;99.90;;;;;;5104438;28;20036;-65
2022/08/18 22:06:26;;;;;;;4.25;3.40;;;17.30;99.90;;;;;;5118068;27;20047;-68
2022/08/18 22:15:33;;;;;;;3.95;3.33;;;17.10;99.90;;;;;;5103891;28;21337;-67
2022/08/18 22:18:00;;;;;;;7.07;3.38;;;17.10;99.90;;;;;;5122072;27;20036;-65
2022/08/18 22:20:48;;;;;;;3.50;3.20;;;17.10;99.90;;;;;;5106048;27;20485;-67
2022/08/18 22:26:07;;;;;;;4.78;3.38;;;17.00;99.90;;;;;;5111576;27;20054;-64
2022/08/18 22:28:35;;;;;;;6.57;3.50;;;17.00;99.90;;;;;;5089213;28;20051;-66
2022/08/18 22:31:01;;;;;;;3.72;3.38;;;17.00;99.90;;;;;;5107716;28;20106;-66
2022/08/18 22:33:27;;;;;;;4.63;3.33;;;16.90;99.90;;;;;;5112061;27;20177;-65
2022/08/18 22:35:56;;;;;;;5.53;3.80;;;16.90;99.90;;;;;;5103120;28;20036;-67
2022/08/18 22:38:25;;;;;;;4.60;3.30;;;16.90;99.90;;;;;;5106701;28;20050;-67
2022/08/18 22:40:51;;;;;;;5.30;3.55;;;16.90;99.90;;;;;;5118961;27;20039;-68
2022/08/18 22:43:17;;;;;;;5.78;3.90;;;16.90;99.90;;;;;;5107880;28;20035;-65
2022/08/18 22:45:43;;;;;;;4.53;3.47;;;16.90;99.90;;;;;;5107306;28;20041;-64
2022/08/18 22:48:08;;;;;;;5.55;3.55;;;16.90;99.90;;;;;;5105223;28;20044;-65
2022/08/18 22:50:34;;;;;;;4.55;3.63;;;16.90;99.90;;;;;;5109166;28;20035;-66
2022/08/18 22:53:00;;;;;;;6.85;3.70;;;16.80;99.90;;;;;;5105482;27;20043;-66
2022/08/18 22:55:26;;;;;;;6.05;3.75;;;16.80;99.90;;;;;;5119504;27;20036;-67
2022/08/18 22:57:53;;;;;;;5.53;3.90;;;16.80;99.90;;;;;;5105336;28;20481;-67
2022/08/18 23:00:20;;;;;;;5.15;3.92;;;16.70;99.90;;;;;;5117043;27;20448;-65
2022/08/18 23:02:49;;;;;;;4.30;3.90;;;16.70;99.90;;;;;;5110123;27;20051;-68
2022/08/18 23:05:14;;;;;;;4.68;3.60;;;16.70;99.90;;;;;;5105775;28;20154;-68
2022/08/18 23:07:41;;;;;;;4.57;3.88;;;16.70;99.90;;;;;;5097109;28;20110;-67
2022/08/18 23:10:08;;;;;;;4.65;3.55;;;16.60;99.90;;;;;;5107203;28;20039;-65
2022/08/18 23:12:33;;;;;;;5.00;4.00;;;16.60;99.90;;;;;;5103449;28;20059;-64
2022/08/18 23:15:08;;;;;;;5.93;3.85;;;16.60;99.90;;;;;;5103096;28;20440;-67
2022/08/18 23:17:33;;;;;;;4.30;3.90;;;16.60;99.90;;;;;;5108769;28;20035;-64
2022/08/18 23:19:59;;;;;;;8.82;3.88;;;16.60;99.90;;;;;;5107575;28;20044;-67
2022/08/18 23:22:26;;;;;;;5.18;4.05;;;16.50;99.90;;;;;;5108473;28;20036;-65
2022/08/18 23:24:52;;;;;;;4.25;3.85;;;16.50;99.90;;;;;;5107560;28;20054;-66
2022/08/18 23:27:20;;;;;;;6.93;4.50;;;16.50;99.90;;;;;;5104966;28;20039;-64
2022/08/18 23:29:47;;;;;;;5.10;4.40;;;16.50;99.90;;;;;;5106247;28;20486;-67
2022/08/18 23:32:13;;;;;;;6.15;5.40;;;16.50;99.90;;;;;;5108306;28;20085;-67
2022/08/18 23:34:39;;;;;;;6.00;5.38;;;16.50;99.90;;;;;;5108559;27;20028;-66
2022/08/18 23:37:08;;;;;;;9.23;5.97;;;16.50;99.90;;;;;;5120051;28;20502;-69
2022/08/18 23:39:34;;;;;;;5.90;5.40;;;16.50;99.90;;;;;;5105964;28;20056;-67
2022/08/18 23:42:02;;;;;;;6.60;5.82;;;16.50;99.90;;;;;;5109321;28;20027;-65
2022/08/18 23:44:28;;;;;;;9.05;7.05;;;16.40;99.90;;;;;;5108042;28;20028;-66
2022/08/18 23:46:56;;;;;;;8.45;7.03;;;16.40;99.90;;;;;;5107014;28;20047;-67
2022/08/18 23:49:23;;;;;;;9.65;7.30;;;16.40;99.90;;;;;;5106811;28;20051;-63
2022/08/18 23:51:53;;;;;;;8.23;7.43;;;16.40;99.90;;;;;;5108575;28;20043;-65
2022/08/18 23:54:24;;;;;;;10.85;8.82;;;16.30;99.90;;;;;;5111475;28;20409;-65
2022/08/18 23:56:50;;;;;;;8.23;7.03;;;16.30;99.90;;;;;;5086955;28;20047;-67
2022/08/18 23:59:18;;;;;;;7.75;7.00;;;16.30;99.90;;;;;;5106041;28;20058;-66
